Time;durP1;ratioP1;P1;durP2;ratioP2;P2;SDS_P1;SDS_P2;PMS_P1;PMS_P2;Temp;Humidity;BMP_temperature;BMP_pressure;BME280_temperature;BME280_humidity;BME280_pressure;Samples;Min_cycle;Max_cycle;Signal;HPM_P1;HPM_P2
2021/07/27 00:00:56;;;;;;;35.88;25.95;;;19.30;99.90;;;;;;4958153;29;20074;-72
2021/07/27 00:03:25;;;;;;;30.63;24.05;;;19.30;99.90;;;;;;4940669;29;20023;-77
2021/07/27 00:05:52;;;;;;;34.22;25.73;;;19.30;99.90;;;;;;4957577;29;20079;-83
2021/07/27 00:08:17;;;;;;;36.50;27.20;;;19.30;99.90;;;;;;4957915;29;20027;-75
2021/07/27 00:10:43;;;;;;;32.42;24.13;;;19.30;99.90;;;;;;4940642;29;20053;-73
2021/07/27 00:13:08;;;;;;;34.05;26.73;;;19.40;99.90;;;;;;4940051;29;20027;-74
2021/07/27 00:15:34;;;;;;;33.35;24.90;;;19.30;99.90;;;;;;4940335;29;20494;-74
2021/07/27 00:17:59;;;;;;;32.83;25.20;;;19.30;99.90;;;;;;4940857;29;20379;-72
2021/07/27 00:20:26;;;;;;;33.28;27.25;;;19.30;99.90;;;;;;4956835;29;20082;-72
2021/07/27 00:22:51;;;;;;;34.35;25.83;;;19.30;99.90;;;;;;4957585;29;20023;-74
2021/07/27 00:25:17;;;;;;;37.35;27.55;;;19.20;99.90;;;;;;4939330;29;20118;-72
2021/07/27 00:27:43;;;;;;;36.10;27.30;;;19.30;99.90;;;;;;4957633;29;20023;-73
2021/07/27 00:30:11;;;;;;;40.25;28.85;;;19.30;99.90;;;;;;4940297;29;20121;-73
2021/07/27 00:32:41;;;;;;;38.67;26.77;;;19.30;99.90;;;;;;4956814;29;20032;-79
2021/07/27 00:35:07;;;;;;;37.88;27.50;;;19.30;99.90;;;;;;4957530;29;20027;-73
2021/07/27 00:37:34;;;;;;;37.28;28.88;;;19.30;99.90;;;;;;4957286;29;20023;-72
2021/07/27 00:40:01;;;;;;;42.38;29.05;;;19.30;99.90;;;;;;4939663;29;20126;-77
2021/07/27 00:42:26;;;;;;;35.58;26.75;;;19.30;99.90;;;;;;4940123;29;20023;-73
2021/07/27 00:44:53;;;;;;;42.85;29.13;;;19.30;99.90;;;;;;4940140;29;20034;-74
2021/07/27 00:47:18;;;;;;;37.17;27.35;;;19.30;99.90;;;;;;4956364;29;20113;-74
2021/07/27 00:49:44;;;;;;;36.55;27.27;;;19.20;99.90;;;;;;4956913;29;20027;-73
2021/07/27 00:52:10;;;;;;;38.50;29.10;;;19.20;99.90;;;;;;4956369;28;20034;-74
2021/07/27 00:54:37;;;;;;;38.65;27.77;;;19.20;99.90;;;;;;4956645;29;20464;-76
2021/07/27 00:57:03;;;;;;;38.38;29.52;;;19.20;99.90;;;;;;4940036;29;20023;-85
2021/07/27 00:59:29;;;;;;;38.88;29.95;;;19.20;99.90;;;;;;4939632;29;20094;-78
2021/07/27 01:01:55;;;;;;;40.90;30.23;;;19.20;99.90;;;;;;4939243;29;20428;-85
2021/07/27 01:04:21;;;;;;;39.42;30.00;;;19.20;99.90;;;;;;4956917;29;20038;-76
2021/07/27 01:06:47;;;;;;;40.30;29.95;;;19.10;99.90;;;;;;4957265;29;20054;-82
2021/07/27 01:09:13;;;;;;;38.92;29.95;;;19.10;99.90;;;;;;4939123;29;20019;-82
2021/07/27 01:11:42;;;;;;;42.13;32.08;;;19.10;99.90;;;;;;4957379;29;20491;-80
2021/07/27 01:14:08;;;;;;;40.13;30.67;;;19.00;99.90;;;;;;4957048;29;20031;-72
2021/07/27 01:16:35;;;;;;;45.08;32.70;;;19.00;99.90;;;;;;4938239;29;20122;-78
2021/07/27 01:43:39;;;;;;;53.25;34.95;;;19.10;99.90;;;;;;4955889;29;20023;-80
2021/07/27 01:46:05;;;;;;;43.75;32.70;;;19.00;99.90;;;;;;4956428;29;20387;-81
2021/07/27 01:48:31;;;;;;;44.08;33.75;;;19.00;99.90;;;;;;4956208;29;20023;-76
2021/07/27 01:51:00;;;;;;;45.50;33.10;;;19.00;99.90;;;;;;4955418;29;20384;-77
2021/07/27 01:53:36;;;;;;;46.55;34.47;;;19.00;99.90;;;;;;4938885;29;20023;-80
2021/07/27 01:56:02;;;;;;;52.05;34.80;;;19.00;99.90;;;;;;4956174;29;20034;-83
2021/07/27 01:58:27;;;;;;;44.67;34.25;;;18.90;99.90;;;;;;4955370;29;20023;-73
2021/07/27 02:00:53;;;;;;;45.35;35.10;;;18.90;99.90;;;;;;4956128;29;20039;-73
2021/07/27 02:03:22;;;;;;;47.85;35.47;;;18.90;99.90;;;;;;4938012;29;20027;-74
2021/07/27 02:05:48;;;;;;;42.70;32.85;;;18.80;99.90;;;;;;4955073;29;20027;-73
2021/07/27 02:08:13;;;;;;;49.05;33.63;;;18.80;99.90;;;;;;4938157;29;20115;-73
2021/07/27 02:10:41;;;;;;;48.65;35.92;;;18.80;99.90;;;;;;4937879;29;20050;-77
2021/07/27 02:13:13;;;;;;;48.50;35.65;;;18.70;99.90;;;;;;4938687;29;20019;-74
2021/07/27 02:15:42;;;;;;;49.35;35.70;;;18.70;99.90;;;;;;4956236;29;20023;-79
2021/07/27 02:18:08;;;;;;;47.20;34.95;;;18.70;99.90;;;;;;4955243;29;20562;-80
2021/07/27 02:20:35;;;;;;;47.83;35.83;;;18.70;99.90;;;;;;4955404;29;20455;-78
2021/07/27 02:23:05;;;;;;;44.78;35.13;;;18.70;99.90;;;;;;4938566;29;20059;-78
2021/07/27 02:25:31;;;;;;;46.58;36.15;;;18.70;99.90;;;;;;4954807;29;20447;-75
2021/07/27 02:27:58;;;;;;;46.85;36.60;;;18.70;99.90;;;;;;4955772;29;20020;-82
2021/07/27 02:30:30;;;;;;;46.85;36.33;;;18.70;99.90;;;;;;4937883;29;20054;-72
2021/07/27 02:32:55;;;;;;;45.38;35.88;;;18.70;99.90;;;;;;4937793;29;20140;-73
2021/07/27 02:35:22;;;;;;;46.53;36.50;;;18.70;99.90;;;;;;4955225;29;20051;-73
2021/07/27 02:37:48;;;;;;;46.47;37.08;;;18.70;99.90;;;;;;4938334;29;20117;-73
2021/07/27 02:40:14;;;;;;;56.17;37.45;;;18.70;99.90;;;;;;4954253;29;20119;-73
2021/07/27 02:42:40;;;;;;;48.47;37.65;;;18.80;99.90;;;;;;4955211;29;20030;-73
2021/07/27 02:45:08;;;;;;;49.63;37.53;;;18.80;99.90;;;;;;4938424;29;20082;-74
2021/07/27 02:47:34;;;;;;;51.95;40.38;;;18.80;99.90;;;;;;4954516;29;20061;-73
2021/07/27 02:49:59;;;;;;;52.45;42.20;;;18.70;99.90;;;;;;4955025;29;20424;-75
2021/07/27 02:52:25;;;;;;;51.72;39.92;;;18.70;99.90;;;;;;4937893;29;20027;-73
2021/07/27 02:54:50;;;;;;;52.90;41.15;;;18.60;99.90;;;;;;4954690;29;20031;-75
2021/07/27 02:57:16;;;;;;;53.80;41.78;;;18.50;99.90;;;;;;4937865;29;20031;-75
2021/07/27 02:59:42;;;;;;;54.10;42.58;;;18.40;99.90;;;;;;4954718;29;20050;-78
2021/07/27 03:02:08;;;;;;;56.15;43.47;;;18.30;99.90;;;;;;4954774;29;20031;-83
2021/07/27 03:04:33;;;;;;;55.58;42.75;;;18.20;99.90;;;;;;4955203;29;20020;-78
2021/07/27 03:06:59;;;;;;;59.17;44.75;;;18.10;99.90;;;;;;4954986;29;20024;-79
2021/07/27 03:09:27;;;;;;;54.95;43.20;;;18.00;99.90;;;;;;4955159;29;20023;-81
2021/07/27 03:11:52;;;;;;;63.00;46.20;;;17.90;99.90;;;;;;4955547;29;20028;-87
2021/07/27 03:14:18;;;;;;;54.92;42.72;;;17.80;99.90;;;;;;4954082;29;20046;-76
2021/07/27 03:16:44;;;;;;;57.42;43.67;;;17.80;99.90;;;;;;4940275;29;20027;-73
2021/07/27 03:19:09;;;;;;;58.47;42.53;;;17.80;99.90;;;;;;4958988;29;20038;-72
2021/07/27 03:21:35;;;;;;;55.33;44.15;;;18.00;99.90;;;;;;4957876;29;20035;-73
2021/07/27 03:24:00;;;;;;;62.47;43.75;;;18.00;99.90;;;;;;4959117;29;20031;-74
2021/07/27 03:26:26;;;;;;;59.17;43.88;;;18.20;99.90;;;;;;4958455;29;20414;-73
2021/07/27 03:28:52;;;;;;;55.25;43.35;;;18.20;99.90;;;;;;4940758;29;20023;-74
2021/07/27 03:31:18;;;;;;;56.80;44.15;;;18.30;99.90;;;;;;4958396;29;20031;-73
2021/07/27 03:33:44;;;;;;;57.25;44.10;;;18.30;99.90;;;;;;4958803;29;20024;-74
2021/07/27 03:36:09;;;;;;;57.45;46.70;;;18.40;99.90;;;;;;4940836;29;20054;-74
2021/07/27 03:38:38;;;;;;;61.20;45.45;;;18.40;99.90;;;;;;4958407;29;20487;-75
2021/07/27 03:41:06;;;;;;;53.83;42.90;;;18.40;99.90;;;;;;4958485;29;20038;-73
2021/07/27 03:43:31;;;;;;;54.72;42.17;;;18.50;99.90;;;;;;4940200;29;20031;-73
2021/07/27 03:45:57;;;;;;;57.70;43.70;;;18.50;99.90;;;;;;4941057;29;20023;-76
2021/07/27 03:48:23;;;;;;;59.08;44.35;;;18.50;99.90;;;;;;4958082;29;20098;-73
2021/07/27 03:50:49;;;;;;;51.20;42.20;;;18.60;99.90;;;;;;4940370;29;20399;-73
2021/07/27 03:53:16;;;;;;;52.60;41.10;;;18.60;99.90;;;;;;4957892;29;20020;-73
2021/07/27 03:55:42;;;;;;;51.88;42.65;;;18.60;99.90;;;;;;4958447;29;20534;-77
2021/07/27 03:58:08;;;;;;;53.45;40.75;;;18.60;99.90;;;;;;4957730;29;20019;-72
2021/07/27 04:00:34;;;;;;;53.13;41.85;;;18.60;99.90;;;;;;4957668;29;20055;-72
2021/07/27 04:03:04;;;;;;;51.00;40.97;;;18.60;99.90;;;;;;4958319;29;20024;-72
2021/07/27 04:05:29;;;;;;;48.50;40.03;;;18.60;99.90;;;;;;4957234;29;20024;-75
2021/07/27 04:07:55;;;;;;;45.70;38.30;;;18.50;99.90;;;;;;4958062;29;20027;-76
2021/07/27 04:10:20;;;;;;;46.65;37.78;;;18.50;99.90;;;;;;4957075;29;20074;-80
2021/07/27 04:12:46;;;;;;;48.72;37.58;;;18.50;99.90;;;;;;4958008;29;20476;-78
2021/07/27 04:15:11;;;;;;;44.75;35.15;;;18.50;99.90;;;;;;4957480;29;20042;-73
2021/07/27 04:17:37;;;;;;;43.75;36.13;;;18.50;99.90;;;;;;4957362;29;20034;-73
2021/07/27 04:20:03;;;;;;;40.78;35.60;;;18.40;99.90;;;;;;4957575;29;20039;-72
2021/07/27 04:22:29;;;;;;;41.70;36.10;;;18.40;99.90;;;;;;4957773;29;20431;-72
2021/07/27 04:24:58;;;;;;;39.72;33.38;;;18.30;99.90;;;;;;4957344;29;20059;-73
2021/07/27 04:27:26;;;;;;;40.30;32.38;;;18.30;99.90;;;;;;4957355;28;20025;-72
2021/07/27 04:29:53;;;;;;;38.67;33.35;;;18.30;99.90;;;;;;4957527;29;20118;-83
2021/07/27 04:32:19;;;;;;;40.00;32.97;;;18.40;99.90;;;;;;4956983;29;20376;-84
2021/07/27 04:34:44;;;;;;;38.20;31.83;;;18.40;99.90;;;;;;4940385;29;20019;-81
2021/07/27 04:37:10;;;;;;;38.90;31.75;;;18.40;99.90;;;;;;4940272;29;20368;-84
2021/07/27 04:39:36;;;;;;;35.78;31.35;;;18.40;99.90;;;;;;4957079;29;20023;-82
2021/07/27 04:42:02;;;;;;;34.55;30.08;;;18.30;99.90;;;;;;4957602;29;20035;-79
2021/07/27 04:44:27;;;;;;;36.67;31.40;;;18.30;99.90;;;;;;4939895;29;20024;-78
2021/07/27 04:46:53;;;;;;;33.80;29.98;;;18.20;99.90;;;;;;4957061;29;20046;-78
2021/07/27 04:49:19;;;;;;;37.80;30.02;;;18.20;99.90;;;;;;4956660;29;20399;-76
2021/07/27 04:51:44;;;;;;;34.55;29.05;;;18.10;99.90;;;;;;4957286;29;20023;-75
2021/07/27 04:54:16;;;;;;;35.13;29.67;;;18.10;99.90;;;;;;4939764;29;20110;-74
2021/07/27 04:56:42;;;;;;;34.33;28.63;;;18.10;99.90;;;;;;4957143;29;20059;-79
2021/07/27 04:59:07;;;;;;;34.53;29.65;;;18.10;99.90;;;;;;4936721;29;20062;-75
2021/07/27 05:01:37;;;;;;;34.20;29.50;;;18.20;99.90;;;;;;4936832;29;20040;-75
2021/07/27 05:04:02;;;;;;;32.08;28.17;;;18.20;99.90;;;;;;4938135;29;20020;-74
2021/07/27 05:06:28;;;;;;;33.50;29.02;;;18.30;99.90;;;;;;4936967;29;20030;-75
2021/07/27 05:08:53;;;;;;;31.65;26.42;;;18.30;99.90;;;;;;4937533;29;20032;-77
2021/07/27 05:11:19;;;;;;;31.95;27.67;;;18.30;99.90;;;;;;4936067;29;20035;-72
2021/07/27 05:13:44;;;;;;;31.88;28.52;;;18.30;99.90;;;;;;4935852;29;20027;-75
2021/07/27 05:16:10;;;;;;;32.22;28.73;;;18.30;99.90;;;;;;4937746;29;20447;-75
2021/07/27 05:18:35;;;;;;;29.90;26.67;;;18.40;99.90;;;;;;4936243;29;20031;-73
2021/07/27 05:21:01;;;;;;;31.70;27.67;;;18.40;99.90;;;;;;4936765;29;20032;-73
2021/07/27 05:23:30;;;;;;;31.67;26.42;;;18.30;99.90;;;;;;4937327;29;20031;-73
2021/07/27 05:25:55;;;;;;;29.20;26.17;;;18.40;99.90;;;;;;4937431;29;20050;-73
2021/07/27 05:28:21;;;;;;;27.73;24.60;;;18.40;99.90;;;;;;4936343;29;20465;-73
2021/07/27 05:30:46;;;;;;;26.98;23.95;;;18.40;99.90;;;;;;4937313;29;20405;-74
2021/07/27 05:33:12;;;;;;;28.17;24.70;;;18.30;99.90;;;;;;4935856;29;20027;-74
2021/07/27 05:35:38;;;;;;;31.17;24.58;;;18.30;99.90;;;;;;4935320;29;20395;-79
2021/07/27 05:38:04;;;;;;;27.00;23.05;;;18.30;99.90;;;;;;4936920;29;20092;-74
2021/07/27 05:40:32;;;;;;;28.38;23.88;;;18.30;99.90;;;;;;4935410;29;20500;-73
2021/07/27 05:42:58;;;;;;;28.60;23.90;;;18.20;99.90;;;;;;4936617;29;20099;-77
2021/07/27 05:45:27;;;;;;;28.80;24.05;;;18.20;99.90;;;;;;4936982;29;20560;-84
2021/07/27 05:47:53;;;;;;;25.42;22.35;;;18.20;99.90;;;;;;4935722;29;20027;-83
2021/07/27 05:50:20;;;;;;;25.30;22.60;;;18.10;99.90;;;;;;4935932;29;20023;-77
2021/07/27 05:52:45;;;;;;;28.73;24.33;;;18.10;99.90;;;;;;4935887;29;20032;-75
2021/07/27 05:55:11;;;;;;;27.70;23.42;;;18.10;99.90;;;;;;4935138;29;20020;-73
2021/07/27 05:57:37;;;;;;;25.80;21.70;;;18.20;99.90;;;;;;4936277;29;20460;-76
2021/07/27 06:00:04;;;;;;;26.67;23.92;;;18.20;99.90;;;;;;4935405;29;20055;-72
2021/07/27 06:02:30;;;;;;;26.00;22.55;;;18.20;99.90;;;;;;4936249;29;20054;-73
2021/07/27 06:04:55;;;;;;;28.15;23.20;;;18.20;99.90;;;;;;4936057;29;20379;-76
2021/07/27 06:07:21;;;;;;;26.02;21.33;;;18.20;99.90;;;;;;4936172;29;20031;-73
2021/07/27 06:09:46;;;;;;;23.52;21.00;;;18.30;99.90;;;;;;4935522;29;20059;-75
2021/07/27 06:12:12;;;;;;;24.05;21.45;;;18.30;99.90;;;;;;4934886;29;20107;-74
2021/07/27 06:14:38;;;;;;;25.25;22.58;;;18.30;99.90;;;;;;4937595;29;20456;-82
2021/07/27 06:17:04;;;;;;;27.88;22.33;;;18.40;99.90;;;;;;4934715;29;20083;-81
2021/07/27 06:19:29;;;;;;;26.77;22.15;;;18.50;99.90;;;;;;4935249;29;20028;-74
2021/07/27 06:21:55;;;;;;;25.17;21.48;;;18.50;99.90;;;;;;4934030;29;20023;-77
2021/07/27 06:24:21;;;;;;;22.70;20.08;;;18.60;99.90;;;;;;4934590;29;20071;-72
2021/07/27 06:26:47;;;;;;;24.77;21.27;;;18.70;99.90;;;;;;4927547;29;20075;-79
2021/07/27 06:29:13;;;;;;;25.77;20.90;;;18.80;99.90;;;;;;4931208;29;20024;-74
2021/07/27 06:31:40;;;;;;;23.65;19.88;;;18.90;99.90;;;;;;4931502;29;20031;-84
2021/07/27 06:34:05;;;;;;;22.70;19.83;;;19.00;99.90;;;;;;4927374;29;20066;-86
2021/07/27 06:36:31;;;;;;;24.50;20.33;;;19.10;99.90;;;;;;4932726;29;20059;-80
2021/07/27 06:38:57;;;;;;;22.88;19.83;;;19.10;99.90;;;;;;4936528;29;20040;-76
2021/07/27 06:41:23;;;;;;;22.00;18.52;;;19.20;99.90;;;;;;4920235;29;20122;-81
2021/07/27 06:43:49;;;;;;;21.02;18.83;;;19.30;99.90;;;;;;4941320;29;20054;-75
2021/07/27 06:46:14;;;;;;;22.20;18.20;;;19.50;99.90;;;;;;4933572;29;20032;-85
2021/07/27 06:48:40;;;;;;;22.83;18.80;;;19.80;99.90;;;;;;4930781;29;20472;-76
2021/07/27 06:51:14;;;;;;;19.80;17.77;;;20.00;99.90;;;;;;4930794;29;20078;-74
2021/07/27 06:53:41;;;;;;;19.90;17.35;;;20.10;99.90;;;;;;4931656;29;20042;-76
2021/07/27 06:56:07;;;;;;;21.67;18.13;;;20.20;99.90;;;;;;4929671;29;20751;-76
2021/07/27 06:58:36;;;;;;;21.48;18.63;;;20.20;99.90;;;;;;4930927;29;20029;-78
2021/07/27 07:01:04;;;;;;;21.33;18.88;;;20.10;99.90;;;;;;4925040;29;20142;-75
2021/07/27 07:03:29;;;;;;;22.08;19.38;;;20.10;99.90;;;;;;4931657;29;20036;-74
2021/07/27 07:05:55;;;;;;;21.85;18.67;;;20.30;99.90;;;;;;4929878;29;20027;-74
2021/07/27 07:08:22;;;;;;;23.38;18.80;;;20.40;99.90;;;;;;4930585;29;20481;-74
2021/07/27 07:10:54;;;;;;;21.05;17.95;;;20.50;99.90;;;;;;4931153;29;20126;-74
2021/07/27 07:13:20;;;;;;;21.75;17.55;;;20.50;99.90;;;;;;4929379;29;20800;-75
2021/07/27 07:15:45;;;;;;;23.95;19.27;;;20.60;99.90;;;;;;4929941;29;20059;-74
2021/07/27 07:18:11;;;;;;;24.90;19.92;;;20.70;99.90;;;;;;4929463;29;20036;-74
2021/07/27 07:20:36;;;;;;;30.67;19.20;;;20.80;99.90;;;;;;4930059;29;20139;-77
2021/07/27 07:23:02;;;;;;;23.98;19.48;;;20.90;99.90;;;;;;4930618;29;20119;-78
2021/07/27 07:25:27;;;;;;;26.05;18.92;;;21.10;99.90;;;;;;4929632;29;20024;-79
2021/07/27 07:27:53;;;;;;;29.55;19.27;;;21.30;99.90;;;;;;4930245;29;20043;-77
2021/07/27 07:30:19;;;;;;;28.15;18.92;;;21.40;99.90;;;;;;4929767;29;20047;-76
2021/07/27 07:32:44;;;;;;;30.77;19.52;;;21.40;99.90;;;;;;4929674;29;20031;-79
2021/07/27 07:35:10;;;;;;;23.00;19.52;;;21.40;99.90;;;;;;4931031;29;20039;-74
2021/07/27 07:37:36;;;;;;;24.23;18.83;;;21.20;99.90;;;;;;4931415;29;20035;-79
2021/07/27 07:40:01;;;;;;;21.05;18.83;;;21.20;99.90;;;;;;4931221;29;20039;-74
2021/07/27 07:42:27;;;;;;;19.55;17.33;;;21.20;99.90;;;;;;4930793;29;20040;-78
2021/07/27 07:44:53;;;;;;;20.10;17.73;;;21.40;99.90;;;;;;4930385;29;20103;-79
2021/07/27 07:47:18;;;;;;;23.35;18.00;;;21.50;99.90;;;;;;4930268;29;20092;-76
2021/07/27 07:49:44;;;;;;;20.40;18.23;;;21.70;99.90;;;;;;4932019;29;20483;-78
2021/07/27 07:52:09;;;;;;;21.58;19.35;;;21.70;99.90;;;;;;4934452;29;20042;-77
2021/07/27 07:54:35;;;;;;;21.42;19.30;;;21.80;99.90;;;;;;4933732;29;20024;-74
2021/07/27 07:57:00;;;;;;;21.10;18.85;;;21.80;99.90;;;;;;4934245;29;20019;-74
2021/07/27 07:59:26;;;;;;;20.40;18.35;;;22.00;99.90;;;;;;4941018;29;20547;-74
2021/07/27 08:01:56;;;;;;;21.20;18.98;;;22.20;99.90;;;;;;4937562;29;20488;-79
2021/07/27 08:04:22;;;;;;;22.48;18.15;;;22.40;99.90;;;;;;4956042;29;20045;-75
2021/07/27 08:06:48;;;;;;;20.17;16.85;;;22.40;99.90;;;;;;4940437;29;20489;-75
2021/07/27 08:09:13;;;;;;;19.05;17.05;;;22.40;99.90;;;;;;4955686;29;20023;-74
2021/07/27 08:11:40;;;;;;;21.45;18.08;;;22.40;99.90;;;;;;4966938;28;20026;-79
2021/07/27 08:14:05;;;;;;;21.73;18.27;;;22.30;99.90;;;;;;4976852;28;20034;-76
2021/07/27 08:16:31;;;;;;;21.17;18.92;;;22.20;99.90;;;;;;4958891;28;20039;-76
2021/07/27 08:18:56;;;;;;;19.15;17.13;;;22.10;99.90;;;;;;4957531;29;20031;-75
2021/07/27 08:21:24;;;;;;;19.70;17.60;;;21.90;99.90;;;;;;4956968;29;20503;-79
2021/07/27 08:23:50;;;;;;;20.23;17.98;;;21.80;99.90;;;;;;4939545;29;20047;-77
2021/07/27 08:26:16;;;;;;;20.98;18.80;;;21.80;99.90;;;;;;4939316;29;20023;-75
2021/07/27 08:28:42;;;;;;;21.13;17.42;;;21.70;99.90;;;;;;4939817;29;20043;-76
2021/07/27 08:31:09;;;;;;;20.40;17.90;;;21.80;99.90;;;;;;4938426;29;20372;-76
2021/07/27 08:33:34;;;;;;;17.67;15.93;;;22.10;99.90;;;;;;4938782;29;20023;-74
2021/07/27 08:36:00;;;;;;;20.98;17.67;;;22.40;99.90;;;;;;4956784;29;20093;-75
2021/07/27 08:38:25;;;;;;;20.70;17.67;;;22.80;99.90;;;;;;4955147;29;20030;-76
2021/07/27 08:40:51;;;;;;;21.25;19.05;;;23.20;99.90;;;;;;4955699;29;20046;-73
2021/07/27 08:43:17;;;;;;;21.80;19.58;;;23.40;99.90;;;;;;4955724;28;20023;-72
2021/07/27 08:45:44;;;;;;;19.33;16.90;;;23.60;99.90;;;;;;4935802;29;20034;-79
2021/07/27 08:48:09;;;;;;;19.65;17.35;;;23.60;99.90;;;;;;4955150;29;20023;-77
2021/07/27 08:50:35;;;;;;;20.20;18.10;;;23.80;99.90;;;;;;4955599;29;20482;-74
2021/07/27 08:53:01;;;;;;;20.00;17.92;;;23.90;99.90;;;;;;4936859;29;20462;-75
2021/07/27 08:55:27;;;;;;;19.20;17.10;;;24.10;99.90;;;;;;4955026;29;20035;-76
2021/07/27 08:57:55;;;;;;;19.05;16.15;;;24.10;99.90;;;;;;4939730;29;20030;-75
2021/07/27 09:00:20;;;;;;;21.10;17.02;;;24.20;99.90;;;;;;4934898;29;20062;-76
2021/07/27 09:02:46;;;;;;;18.80;16.35;;;24.10;99.90;;;;;;4937153;29;20381;-76
2021/07/27 09:05:13;;;;;;;19.02;17.00;;;24.00;99.90;;;;;;4935659;29;20054;-75
2021/07/27 09:07:38;;;;;;;22.00;17.15;;;23.70;99.90;;;;;;4937296;29;20053;-74
2021/07/27 09:10:12;;;;;;;19.55;17.42;;;23.50;99.90;;;;;;4936288;29;20028;-74
2021/07/27 09:12:38;;;;;;;20.30;18.20;;;23.30;99.90;;;;;;4936323;29;20146;-75
2021/07/27 09:15:07;;;;;;;20.27;18.17;;;23.10;99.90;;;;;;4935367;29;20122;-74
2021/07/27 09:17:33;;;;;;;19.15;17.25;;;23.00;99.90;;;;;;4933044;29;20031;-79
2021/07/27 09:19:59;;;;;;;19.88;17.98;;;22.90;99.90;;;;;;4935289;29;20028;-74
2021/07/27 09:22:39;;;;;;;19.30;17.27;;;22.90;99.90;;;;;;4937014;29;20400;-83
2021/07/27 09:25:06;;;;;;;;;;;23.00;99.90;;;;;;4937432;29;20031;-78
2021/07/27 09:27:32;;;;;;;18.80;16.85;;;23.00;99.90;;;;;;4935788;29;20291;-84
2021/07/27 09:29:57;;;;;;;17.88;15.38;;;23.10;99.90;;;;;;4935434;29;20024;-77
2021/07/27 09:32:23;;;;;;;16.42;14.82;;;23.10;99.90;;;;;;4934999;29;20027;-77
2021/07/27 09:34:49;;;;;;;16.67;14.02;;;23.30;99.90;;;;;;4934946;29;20027;-78
2021/07/27 09:37:14;;;;;;;17.67;14.40;;;23.40;99.90;;;;;;4935539;29;20115;-78
2021/07/27 09:39:40;;;;;;;17.50;14.52;;;23.70;99.90;;;;;;4936268;29;20073;-74
2021/07/27 09:42:08;;;;;;;15.95;13.73;;;24.00;99.90;;;;;;4936593;29;20384;-78
2021/07/27 09:44:38;;;;;;;12.95;11.50;;;24.20;99.90;;;;;;4935018;29;20023;-77
2021/07/27 09:47:04;;;;;;;14.25;11.57;;;24.40;99.90;;;;;;4935323;29;20059;-80
2021/07/27 09:49:30;;;;;;;13.95;12.43;;;24.80;99.90;;;;;;4934589;29;20540;-78
2021/07/27 09:51:56;;;;;;;14.10;12.55;;;25.00;99.90;;;;;;4936589;29;20031;-78
2021/07/27 09:54:24;;;;;;;12.55;11.23;;;24.70;99.90;;;;;;4934437;29;20115;-76
2021/07/27 09:56:51;;;;;;;11.80;10.32;;;24.40;99.90;;;;;;4933573;29;20063;-76
2021/07/27 09:59:18;;;;;;;14.63;10.98;;;24.10;99.90;;;;;;4933527;29;20116;-74
2021/07/27 10:01:53;;;;;;;11.35;10.35;;;24.00;99.90;;;;;;4936052;29;20118;-76
2021/07/27 10:04:31;;;;;;;11.88;10.77;;;24.10;99.90;;;;;;4934772;29;20019;-76
2021/07/27 10:06:57;;;;;;;14.30;12.25;;;24.20;99.90;;;;;;4935927;29;20579;-74
2021/07/27 10:09:26;;;;;;;12.00;10.18;;;24.50;99.90;;;;;;4933200;29;20107;-74
2021/07/27 10:11:53;;;;;;;11.98;10.77;;;24.80;99.80;;;;;;4936014;29;20030;-75
2021/07/27 10:14:19;;;;;;;11.73;10.73;;;25.00;99.90;;;;;;4934483;29;20114;-74
2021/07/27 10:16:46;;;;;;;11.40;9.80;;;25.10;99.40;;;;;;4935019;29;20028;-76
2021/07/27 10:19:15;;;;;;;10.10;9.20;;;25.40;99.60;;;;;;4935535;29;20036;-82
2021/07/27 10:21:41;;;;;;;14.23;10.13;;;25.50;98.90;;;;;;4935284;29;20075;-81
2021/07/27 10:24:17;;;;;;;10.63;9.57;;;25.60;98.70;;;;;;4934146;29;20519;-75
2021/07/27 10:26:43;;;;;;;12.27;10.50;;;25.70;98.50;;;;;;4936173;29;20087;-74
2021/07/27 10:29:09;;;;;;;11.88;9.55;;;25.60;98.20;;;;;;4935364;29;20034;-83
2021/07/27 10:31:39;;;;;;;12.73;9.93;;;25.50;98.70;;;;;;4933926;29;20058;-75
2021/07/27 10:34:07;;;;;;;10.77;9.67;;;25.40;98.70;;;;;;4936446;29;20038;-73
2021/07/27 10:36:36;;;;;;;10.13;9.13;;;25.40;98.40;;;;;;4935743;29;20295;-73
2021/07/27 10:39:16;;;;;;;11.73;10.52;;;25.30;98.20;;;;;;4935068;29;20066;-76
2021/07/27 10:41:44;;;;;;;11.07;9.65;;;25.20;97.50;;;;;;4934828;29;20031;-73
2021/07/27 10:44:11;;;;;;;10.98;9.88;;;25.00;97.80;;;;;;4935436;29;20020;-76
2021/07/27 10:46:39;;;;;;;13.57;9.35;;;24.80;98.00;;;;;;4936158;29;20633;-80
2021/07/27 10:49:05;;;;;;;12.10;10.82;;;24.70;98.50;;;;;;4934601;29;20035;-84
2021/07/27 10:51:37;;;;;;;12.07;10.88;;;24.60;98.20;;;;;;4935110;29;20155;-72
2021/07/27 10:54:04;;;;;;;11.27;10.18;;;24.70;99.20;;;;;;4934835;29;20020;-74
2021/07/27 10:56:31;;;;;;;12.60;11.40;;;24.70;99.20;;;;;;4935532;29;20061;-76
2021/07/27 10:58:58;;;;;;;10.93;9.85;;;24.70;98.90;;;;;;4938356;29;20158;-74
2021/07/27 11:01:29;;;;;;;12.60;11.40;;;24.60;99.50;;;;;;4955008;29;20134;-72
2021/07/27 11:04:06;;;;;;;;;;;24.60;99.10;;;;;;4955242;29;20147;-72
2021/07/27 11:06:31;;;;;;;13.05;11.02;;;24.60;99.40;;;;;;4954205;29;19917;-77
2021/07/27 11:09:00;;;;;;;12.90;11.57;;;24.60;99.20;;;;;;4937715;29;20019;-78
2021/07/27 11:11:26;;;;;;;12.63;11.32;;;24.60;99.10;;;;;;4954592;29;20026;-74
2021/07/27 11:13:55;;;;;;;14.18;11.68;;;24.70;99.60;;;;;;4954262;29;20019;-78
2021/07/27 11:16:21;;;;;;;12.95;11.25;;;24.80;99.10;;;;;;4937072;29;20027;-82
2021/07/27 11:18:47;;;;;;;11.63;10.52;;;24.60;98.90;;;;;;4954844;29;20062;-78
2021/07/27 11:21:13;;;;;;;11.85;10.75;;;24.50;99.30;;;;;;4953906;29;20039;-74
2021/07/27 11:23:40;;;;;;;13.15;10.55;;;24.50;99.60;;;;;;4954520;29;20031;-74
2021/07/27 11:26:06;;;;;;;13.02;11.70;;;24.80;99.80;;;;;;4954366;29;20015;-78
2021/07/27 11:28:41;;;;;;;11.98;10.77;;;25.40;98.90;;;;;;4954051;29;20050;-73
2021/07/27 11:31:20;;;;;;;13.90;11.55;;;26.10;98.00;;;;;;4954498;29;20023;-77
2021/07/27 11:33:50;;;;;;;13.38;11.48;;;26.30;97.30;;;;;;4954272;29;20468;-73
2021/07/27 11:36:26;;;;;;;11.75;10.55;;;26.10;96.80;;;;;;4937525;29;20023;-73
2021/07/27 11:39:02;;;;;;;11.50;10.30;;;25.90;97.10;;;;;;4941535;29;20058;-78
2021/07/27 11:41:28;;;;;;;15.88;11.95;;;25.50;97.30;;;;;;4940114;29;20043;-72
2021/07/27 11:43:56;;;;;;;7.78;7.07;;;25.00;97.50;;;;;;4958783;29;20031;-73
2021/07/27 11:46:30;;;;;;;12.13;6.25;;;24.30;97.60;;;;;;4958291;29;20476;-81
2021/07/27 11:48:56;;;;;;;14.43;6.88;;;23.30;99.90;;;;;;4958407;29;20027;-85
2021/07/27 11:51:39;;;;;;;24.95;7.72;;;21.90;99.90;;;;;;4941451;29;20031;-90
2021/07/27 11:54:05;;;;;;;22.30;8.50;;;20.70;99.90;;;;;;4958972;29;20027;-74
2021/07/27 11:56:31;;;;;;;9.63;6.57;;;20.00;99.90;;;;;;4958029;29;20031;-86
2021/07/27 11:59:05;;;;;;;9.50;6.40;;;19.30;99.90;;;;;;4958980;29;20400;-84
2021/07/27 12:01:44;;;;;;;7.82;6.30;;;19.00;99.90;;;;;;4957474;29;20035;-74
2021/07/27 12:04:13;;;;;;;8.65;7.03;;;18.90;99.90;;;;;;4958792;29;20372;-83
2021/07/27 12:06:49;;;;;;;8.48;6.97;;;18.70;99.90;;;;;;4941352;29;20023;-82
2021/07/27 12:09:15;;;;;;;8.85;6.68;;;18.80;99.90;;;;;;4958235;29;20031;-88
2021/07/27 12:11:41;;;;;;;8.07;6.78;;;18.80;99.90;;;;;;4958265;29;20054;-84
2021/07/27 12:14:07;;;;;;;8.82;6.70;;;18.90;99.90;;;;;;4941554;29;20064;-87
2021/07/27 12:16:33;;;;;;;9.90;6.40;;;19.00;99.90;;;;;;4957794;29;20067;-84
2021/07/27 12:18:59;;;;;;;6.90;5.75;;;19.20;99.90;;;;;;4957668;29;20109;-82
2021/07/27 12:21:24;;;;;;;6.65;5.97;;;19.30;99.90;;;;;;4957557;29;20036;-74
2021/07/27 12:23:50;;;;;;;9.73;6.32;;;19.50;99.90;;;;;;4940530;29;20020;-75
2021/07/27 12:26:15;;;;;;;7.97;5.78;;;19.80;99.90;;;;;;4940727;29;20500;-92
2021/07/27 12:28:41;;;;;;;6.38;5.65;;;20.30;99.90;;;;;;4941510;29;20455;-76
2021/07/27 12:31:06;;;;;;;6.18;5.55;;;20.70;99.90;;;;;;4957190;29;20109;-77
2021/07/27 12:33:32;;;;;;;6.15;5.22;;;21.20;99.90;;;;;;4957664;29;20102;-83
2021/07/27 12:36:02;;;;;;;8.02;5.50;;;21.40;99.90;;;;;;4958238;29;20031;-84
2021/07/27 12:38:27;;;;;;;6.45;5.15;;;21.60;99.90;;;;;;4957349;29;20069;-85
2021/07/27 12:40:53;;;;;;;10.82;5.00;;;21.80;99.90;;;;;;4958062;29;20444;-77
2021/07/27 12:43:19;;;;;;;8.23;4.80;;;21.90;99.90;;;;;;4957270;29;20114;-81
2021/07/27 12:45:45;;;;;;;7.72;4.70;;;22.20;99.90;;;;;;4940611;29;20059;-74
2021/07/27 12:48:11;;;;;;;5.53;4.30;;;22.50;99.90;;;;;;4940614;29;20058;-74
2021/07/27 12:50:40;;;;;;;4.90;4.20;;;22.70;99.90;;;;;;4940075;29;20028;-78
2021/07/27 12:53:05;;;;;;;4.43;3.80;;;22.60;99.90;;;;;;4957509;29;20123;-77